sensor_id;sensor_type;location;lat;lon;timestamp;P1;durP1;ratioP1;P2;durP2;ratioP2
35488;SDS011;21602;55.670;37.578;2022-10-16T00:01:13;4.95;;;2.20;;
35488;SDS011;21602;55.670;37.578;2022-10-16T00:03:40;4.78;;;2.35;;
35488;SDS011;21602;55.670;37.578;2022-10-16T00:06:08;4.80;;;2.50;;
35488;SDS011;21602;55.670;37.578;2022-10-16T00:08:35;4.95;;;2.67;;
35488;SDS011;21602;55.670;37.578;2022-10-16T00:11:15;6.03;;;2.80;;
35488;SDS011;21602;55.670;37.578;2022-10-16T00:13:43;4.63;;;2.83;;
35488;SDS011;21602;55.670;37.578;2022-10-16T00:16:11;7.13;;;2.75;;
35488;SDS011;21602;55.670;37.578;2022-10-16T00:18:38;6.68;;;2.17;;
35488;SDS011;21602;55.670;37.578;2022-10-16T00:21:12;5.10;;;2.67;;
35488;SDS011;21602;55.670;37.578;2022-10-16T00:24:01;4.90;;;2.97;;
35488;SDS011;21602;55.670;37.578;2022-10-16T00:26:30;3.83;;;2.25;;
35488;SDS011;21602;55.670;37.578;2022-10-16T00:28:57;4.20;;;2.22;;
35488;SDS011;21602;55.670;37.578;2022-10-16T00:31:23;4.45;;;2.22;;
35488;SDS011;21602;55.670;37.578;2022-10-16T00:33:49;6.05;;;2.13;;
35488;SDS011;21602;55.670;37.578;2022-10-16T00:36:17;4.03;;;2.40;;
35488;SDS011;21602;55.670;37.578;2022-10-16T00:38:45;5.95;;;2.35;;
35488;SDS011;21602;55.670;37.578;2022-10-16T00:41:12;5.07;;;2.25;;
35488;SDS011;21602;55.670;37.578;2022-10-16T00:43:44;5.65;;;2.45;;
35488;SDS011;21602;55.670;37.578;2022-10-16T00:46:16;4.78;;;2.63;;
35488;SDS011;21602;55.670;37.578;2022-10-16T00:48:47;4.65;;;2.33;;
35488;SDS011;21602;55.670;37.578;2022-10-16T00:51:18;4.32;;;2.40;;
35488;SDS011;21602;55.670;37.578;2022-10-16T00:53:50;3.50;;;2.30;;
35488;SDS011;21602;55.670;37.578;2022-10-16T00:56:17;4.65;;;2.80;;
35488;SDS011;21602;55.670;37.578;2022-10-16T00:58:43;3.95;;;2.28;;
35488;SDS011;21602;55.670;37.578;2022-10-16T01:01:09;5.82;;;2.78;;
35488;SDS011;21602;55.670;37.578;2022-10-16T01:03:35;4.75;;;2.20;;
35488;SDS011;21602;55.670;37.578;2022-10-16T01:06:05;6.43;;;2.63;;
35488;SDS011;21602;55.670;37.578;2022-10-16T01:08:43;4.57;;;2.60;;
35488;SDS011;21602;55.670;37.578;2022-10-16T01:14:20;9.82;;;2.40;;
35488;SDS011;21602;55.670;37.578;2022-10-16T01:16:59;4.85;;;2.20;;
35488;SDS011;21602;55.670;37.578;2022-10-16T01:22:16;2.42;;;1.95;;
35488;SDS011;21602;55.670;37.578;2022-10-16T01:24:46;6.82;;;2.35;;
35488;SDS011;21602;55.670;37.578;2022-10-16T01:27:27;4.10;;;2.28;;
35488;SDS011;21602;55.670;37.578;2022-10-16T01:37:40;3.08;;;1.80;;
35488;SDS011;21602;55.670;37.578;2022-10-16T01:40:12;5.85;;;2.28;;
35488;SDS011;21602;55.670;37.578;2022-10-16T01:42:46;6.85;;;2.00;;
35488;SDS011;21602;55.670;37.578;2022-10-16T01:45:15;5.28;;;2.38;;
35488;SDS011;21602;55.670;37.578;2022-10-16T01:47:46;4.50;;;2.15;;
35488;SDS011;21602;55.670;37.578;2022-10-16T01:50:15;5.47;;;2.35;;
35488;SDS011;21602;55.670;37.578;2022-10-16T01:52:43;4.15;;;2.35;;
35488;SDS011;21602;55.670;37.578;2022-10-16T01:55:13;3.45;;;2.05;;
35488;SDS011;21602;55.670;37.578;2022-10-16T01:57:42;5.00;;;2.10;;
35488;SDS011;21602;55.670;37.578;2022-10-16T02:00:12;3.05;;;2.63;;
35488;SDS011;21602;55.670;37.578;2022-10-16T02:02:40;4.13;;;2.47;;
35488;SDS011;21602;55.670;37.578;2022-10-16T02:07:37;2.83;;;1.92;;
35488;SDS011;21602;55.670;37.578;2022-10-16T02:10:02;4.13;;;2.17;;
35488;SDS011;21602;55.670;37.578;2022-10-16T02:12:31;5.70;;;2.33;;
35488;SDS011;21602;55.670;37.578;2022-10-16T02:14:59;4.80;;;2.70;;
35488;SDS011;21602;55.670;37.578;2022-10-16T02:17:26;6.18;;;2.38;;
35488;SDS011;21602;55.670;37.578;2022-10-16T02:19:53;4.55;;;2.95;;
35488;SDS011;21602;55.670;37.578;2022-10-16T02:25:30;4.45;;;2.45;;
35488;SDS011;21602;55.670;37.578;2022-10-16T02:30:45;7.53;;;2.80;;
35488;SDS011;21602;55.670;37.578;2022-10-16T02:33:16;3.97;;;2.05;;
35488;SDS011;21602;55.670;37.578;2022-10-16T02:35:46;4.97;;;2.17;;
35488;SDS011;21602;55.670;37.578;2022-10-16T02:38:14;3.97;;;2.47;;
35488;SDS011;21602;55.670;37.578;2022-10-16T02:40:41;5.50;;;2.80;;
35488;SDS011;21602;55.670;37.578;2022-10-16T02:43:07;3.70;;;2.40;;
35488;SDS011;21602;55.670;37.578;2022-10-16T02:45:34;5.60;;;2.40;;
35488;SDS011;21602;55.670;37.578;2022-10-16T02:48:00;6.47;;;2.97;;
35488;SDS011;21602;55.670;37.578;2022-10-16T02:50:26;4.05;;;2.05;;
35488;SDS011;21602;55.670;37.578;2022-10-16T02:52:52;3.33;;;2.35;;
35488;SDS011;21602;55.670;37.578;2022-10-16T02:55:18;5.25;;;2.55;;
35488;SDS011;21602;55.670;37.578;2022-10-16T02:57:43;5.32;;;2.40;;
35488;SDS011;21602;55.670;37.578;2022-10-16T03:00:09;4.75;;;2.58;;
35488;SDS011;21602;55.670;37.578;2022-10-16T03:02:38;4.22;;;2.80;;
35488;SDS011;21602;55.670;37.578;2022-10-16T03:05:05;3.88;;;2.67;;
35488;SDS011;21602;55.670;37.578;2022-10-16T03:07:31;4.38;;;2.35;;
35488;SDS011;21602;55.670;37.578;2022-10-16T03:09:56;7.35;;;3.30;;
35488;SDS011;21602;55.670;37.578;2022-10-16T03:14:54;5.03;;;2.70;;
35488;SDS011;21602;55.670;37.578;2022-10-16T03:17:21;7.78;;;2.88;;
35488;SDS011;21602;55.670;37.578;2022-10-16T03:19:48;4.20;;;2.60;;
35488;SDS011;21602;55.670;37.578;2022-10-16T03:22:13;8.35;;;2.95;;
35488;SDS011;21602;55.670;37.578;2022-10-16T03:24:39;6.90;;;2.78;;
35488;SDS011;21602;55.670;37.578;2022-10-16T03:27:05;4.85;;;2.13;;
35488;SDS011;21602;55.670;37.578;2022-10-16T03:29:31;6.40;;;3.08;;
35488;SDS011;21602;55.670;37.578;2022-10-16T03:31:58;6.10;;;2.80;;
35488;SDS011;21602;55.670;37.578;2022-10-16T03:34:24;3.60;;;2.38;;
35488;SDS011;21602;55.670;37.578;2022-10-16T03:36:49;4.55;;;2.88;;
35488;SDS011;21602;55.670;37.578;2022-10-16T03:39:15;4.40;;;3.00;;
35488;SDS011;21602;55.670;37.578;2022-10-16T03:41:41;4.22;;;2.72;;
35488;SDS011;21602;55.670;37.578;2022-10-16T03:44:07;7.63;;;3.15;;
35488;SDS011;21602;55.670;37.578;2022-10-16T03:46:32;3.92;;;2.30;;
35488;SDS011;21602;55.670;37.578;2022-10-16T03:48:58;5.72;;;3.15;;
35488;SDS011;21602;55.670;37.578;2022-10-16T03:51:24;4.97;;;2.17;;
35488;SDS011;21602;55.670;37.578;2022-10-16T03:53:49;5.53;;;2.38;;
35488;SDS011;21602;55.670;37.578;2022-10-16T03:56:15;6.68;;;2.33;;
35488;SDS011;21602;55.670;37.578;2022-10-16T03:58:41;3.22;;;2.47;;
35488;SDS011;21602;55.670;37.578;2022-10-16T04:01:07;8.40;;;2.80;;
35488;SDS011;21602;55.670;37.578;2022-10-16T04:03:32;4.18;;;2.50;;
35488;SDS011;21602;55.670;37.578;2022-10-16T04:05:58;4.63;;;2.38;;
35488;SDS011;21602;55.670;37.578;2022-10-16T04:08:24;6.60;;;2.78;;
35488;SDS011;21602;55.670;37.578;2022-10-16T04:10:50;4.82;;;2.55;;
35488;SDS011;21602;55.670;37.578;2022-10-16T04:13:16;4.95;;;3.15;;
35488;SDS011;21602;55.670;37.578;2022-10-16T04:15:42;6.18;;;2.33;;
35488;SDS011;21602;55.670;37.578;2022-10-16T04:18:09;6.05;;;2.95;;
35488;SDS011;21602;55.670;37.578;2022-10-16T04:20:35;3.08;;;2.20;;
35488;SDS011;21602;55.670;37.578;2022-10-16T04:23:00;4.07;;;2.63;;
35488;SDS011;21602;55.670;37.578;2022-10-16T04:25:26;2.72;;;2.00;;
35488;SDS011;21602;55.670;37.578;2022-10-16T04:27:52;5.10;;;2.65;;
35488;SDS011;21602;55.670;37.578;2022-10-16T04:30:19;5.47;;;2.60;;
35488;SDS011;21602;55.670;37.578;2022-10-16T04:32:49;7.75;;;2.70;;
35488;SDS011;21602;55.670;37.578;2022-10-16T04:35:16;5.65;;;2.97;;
35488;SDS011;21602;55.670;37.578;2022-10-16T04:37:43;5.78;;;2.92;;
35488;SDS011;21602;55.670;37.578;2022-10-16T04:40:09;5.55;;;2.67;;
35488;SDS011;21602;55.670;37.578;2022-10-16T04:42:35;5.50;;;2.63;;
35488;SDS011;21602;55.670;37.578;2022-10-16T04:45:00;5.10;;;3.13;;
35488;SDS011;21602;55.670;37.578;2022-10-16T04:47:28;4.22;;;2.88;;
35488;SDS011;21602;55.670;37.578;2022-10-16T04:49:54;4.10;;;2.63;;
35488;SDS011;21602;55.670;37.578;2022-10-16T04:52:20;7.38;;;2.90;;
35488;SDS011;21602;55.670;37.578;2022-10-16T04:54:46;4.53;;;3.03;;
35488;SDS011;21602;55.670;37.578;2022-10-16T04:57:12;5.65;;;2.67;;
35488;SDS011;21602;55.670;37.578;2022-10-16T04:59:38;5.28;;;2.63;;
35488;SDS011;21602;55.670;37.578;2022-10-16T05:02:03;4.75;;;3.42;;
35488;SDS011;21602;55.670;37.578;2022-10-16T05:04:29;6.30;;;2.95;;
35488;SDS011;21602;55.670;37.578;2022-10-16T05:06:55;7.13;;;3.50;;
35488;SDS011;21602;55.670;37.578;2022-10-16T05:09:21;9.02;;;2.60;;
35488;SDS011;21602;55.670;37.578;2022-10-16T05:11:47;7.88;;;3.78;;
35488;SDS011;21602;55.670;37.578;2022-10-16T05:14:12;6.68;;;2.95;;
35488;SDS011;21602;55.670;37.578;2022-10-16T05:16:38;5.60;;;3.38;;
35488;SDS011;21602;55.670;37.578;2022-10-16T05:19:04;5.03;;;3.00;;
35488;SDS011;21602;55.670;37.578;2022-10-16T05:21:29;12.52;;;3.00;;
35488;SDS011;21602;55.670;37.578;2022-10-16T05:23:55;5.50;;;2.97;;
35488;SDS011;21602;55.670;37.578;2022-10-16T05:26:21;6.00;;;3.17;;
35488;SDS011;21602;55.670;37.578;2022-10-16T05:28:47;5.57;;;3.45;;
35488;SDS011;21602;55.670;37.578;2022-10-16T05:31:12;10.65;;;4.38;;
35488;SDS011;21602;55.670;37.578;2022-10-16T05:33:38;5.93;;;3.05;;
35488;SDS011;21602;55.670;37.578;2022-10-16T05:36:07;6.03;;;3.42;;
35488;SDS011;21602;55.670;37.578;2022-10-16T05:38:34;13.52;;;3.83;;
35488;SDS011;21602;55.670;37.578;2022-10-16T05:41:01;4.32;;;3.00;;
35488;SDS011;21602;55.670;37.578;2022-10-16T05:43:27;6.65;;;3.20;;
35488;SDS011;21602;55.670;37.578;2022-10-16T05:45:55;8.10;;;3.40;;
35488;SDS011;21602;55.670;37.578;2022-10-16T05:48:20;6.82;;;3.50;;
35488;SDS011;21602;55.670;37.578;2022-10-16T05:50:46;4.35;;;2.80;;
35488;SDS011;21602;55.670;37.578;2022-10-16T05:53:12;6.15;;;3.65;;
35488;SDS011;21602;55.670;37.578;2022-10-16T05:55:37;7.50;;;3.50;;
35488;SDS011;21602;55.670;37.578;2022-10-16T05:58:03;6.18;;;2.85;;
35488;SDS011;21602;55.670;37.578;2022-10-16T06:00:29;3.90;;;2.85;;
35488;SDS011;21602;55.670;37.578;2022-10-16T06:02:54;7.13;;;3.08;;
35488;SDS011;21602;55.670;37.578;2022-10-16T06:05:20;8.05;;;4.07;;
35488;SDS011;21602;55.670;37.578;2022-10-16T06:07:46;6.18;;;3.15;;
35488;SDS011;21602;55.670;37.578;2022-10-16T06:10:11;8.00;;;3.45;;
35488;SDS011;21602;55.670;37.578;2022-10-16T06:12:37;6.65;;;3.13;;
35488;SDS011;21602;55.670;37.578;2022-10-16T06:15:03;8.80;;;3.00;;
35488;SDS011;21602;55.670;37.578;2022-10-16T06:17:29;6.90;;;3.25;;
35488;SDS011;21602;55.670;37.578;2022-10-16T06:19:55;7.07;;;3.60;;
35488;SDS011;21602;55.670;37.578;2022-10-16T06:22:21;7.57;;;3.60;;
35488;SDS011;21602;55.670;37.578;2022-10-16T06:24:47;8.65;;;3.40;;
35488;SDS011;21602;55.670;37.578;2022-10-16T06:27:12;8.20;;;3.85;;
35488;SDS011;21602;55.670;37.578;2022-10-16T06:29:38;6.85;;;3.67;;
35488;SDS011;21602;55.670;37.578;2022-10-16T06:32:04;7.43;;;3.28;;
35488;SDS011;21602;55.670;37.578;2022-10-16T06:34:29;11.40;;;3.95;;
35488;SDS011;21602;55.670;37.578;2022-10-16T06:36:55;7.30;;;3.45;;
35488;SDS011;21602;55.670;37.578;2022-10-16T06:39:21;12.07;;;4.13;;
35488;SDS011;21602;55.670;37.578;2022-10-16T06:41:47;7.88;;;4.13;;
35488;SDS011;21602;55.670;37.578;2022-10-16T06:44:15;9.93;;;3.67;;
35488;SDS011;21602;55.670;37.578;2022-10-16T06:46:41;14.48;;;4.90;;
35488;SDS011;21602;55.670;37.578;2022-10-16T06:49:07;7.32;;;3.65;;
35488;SDS011;21602;55.670;37.578;2022-10-16T06:51:33;6.97;;;3.55;;
35488;SDS011;21602;55.670;37.578;2022-10-16T06:54:00;13.15;;;5.22;;
35488;SDS011;21602;55.670;37.578;2022-10-16T06:56:27;9.00;;;4.53;;
35488;SDS011;21602;55.670;37.578;2022-10-16T06:58:56;9.82;;;4.50;;
35488;SDS011;21602;55.670;37.578;2022-10-16T07:01:22;8.20;;;3.55;;
35488;SDS011;21602;55.670;37.578;2022-10-16T07:03:49;9.90;;;3.40;;
35488;SDS011;21602;55.670;37.578;2022-10-16T07:06:15;12.10;;;5.85;;
35488;SDS011;21602;55.670;37.578;2022-10-16T07:08:45;8.00;;;4.22;;
35488;SDS011;21602;55.670;37.578;2022-10-16T07:11:13;5.33;;;3.87;;
35488;SDS011;21602;55.670;37.578;2022-10-16T07:13:41;9.43;;;3.42;;
35488;SDS011;21602;55.670;37.578;2022-10-16T07:16:12;6.95;;;4.50;;
35488;SDS011;21602;55.670;37.578;2022-10-16T07:18:40;11.73;;;3.67;;
35488;SDS011;21602;55.670;37.578;2022-10-16T07:21:11;13.35;;;4.05;;
35488;SDS011;21602;55.670;37.578;2022-10-16T07:23:45;11.15;;;3.92;;
35488;SDS011;21602;55.670;37.578;2022-10-16T07:26:15;6.78;;;3.53;;
35488;SDS011;21602;55.670;37.578;2022-10-16T07:28:42;17.55;;;3.55;;
35488;SDS011;21602;55.670;37.578;2022-10-16T07:31:09;7.60;;;3.55;;
35488;SDS011;21602;55.670;37.578;2022-10-16T07:33:37;12.43;;;3.83;;
35488;SDS011;21602;55.670;37.578;2022-10-16T07:36:04;8.38;;;4.38;;
35488;SDS011;21602;55.670;37.578;2022-10-16T07:38:30;11.52;;;3.95;;
35488;SDS011;21602;55.670;37.578;2022-10-16T07:40:57;8.85;;;3.97;;
35488;SDS011;21602;55.670;37.578;2022-10-16T07:43:24;7.53;;;4.10;;
35488;SDS011;21602;55.670;37.578;2022-10-16T07:45:51;8.20;;;3.70;;
35488;SDS011;21602;55.670;37.578;2022-10-16T07:48:18;11.10;;;3.60;;
35488;SDS011;21602;55.670;37.578;2022-10-16T07:50:44;8.95;;;3.40;;
35488;SDS011;21602;55.670;37.578;2022-10-16T07:53:10;14.07;;;3.90;;
35488;SDS011;21602;55.670;37.578;2022-10-16T07:55:37;11.02;;;4.13;;
35488;SDS011;21602;55.670;37.578;2022-10-16T07:58:02;10.55;;;3.58;;
35488;SDS011;21602;55.670;37.578;2022-10-16T08:00:28;11.75;;;3.78;;
35488;SDS011;21602;55.670;37.578;2022-10-16T08:02:54;6.63;;;3.25;;
35488;SDS011;21602;55.670;37.578;2022-10-16T08:05:22;10.77;;;3.53;;
35488;SDS011;21602;55.670;37.578;2022-10-16T08:07:48;11.07;;;3.58;;
35488;SDS011;21602;55.670;37.578;2022-10-16T08:10:18;11.10;;;3.67;;
35488;SDS011;21602;55.670;37.578;2022-10-16T08:12:45;10.20;;;3.05;;
35488;SDS011;21602;55.670;37.578;2022-10-16T08:15:10;6.22;;;3.15;;
35488;SDS011;21602;55.670;37.578;2022-10-16T08:17:37;10.13;;;4.13;;
35488;SDS011;21602;55.670;37.578;2022-10-16T08:20:03;7.35;;;3.08;;
35488;SDS011;21602;55.670;37.578;2022-10-16T08:22:30;6.28;;;3.42;;
35488;SDS011;21602;55.670;37.578;2022-10-16T08:24:56;6.80;;;3.70;;
35488;SDS011;21602;55.670;37.578;2022-10-16T08:27:22;8.82;;;2.97;;
35488;SDS011;21602;55.670;37.578;2022-10-16T08:29:50;7.70;;;3.08;;
35488;SDS011;21602;55.670;37.578;2022-10-16T08:32:16;6.13;;;2.97;;
35488;SDS011;21602;55.670;37.578;2022-10-16T08:34:42;11.07;;;3.53;;
35488;SDS011;21602;55.670;37.578;2022-10-16T08:37:08;6.38;;;3.08;;
35488;SDS011;21602;55.670;37.578;2022-10-16T08:39:36;10.10;;;3.88;;
35488;SDS011;21602;55.670;37.578;2022-10-16T08:47:54;6.53;;;2.88;;
35488;SDS011;21602;55.670;37.578;2022-10-16T08:50:30;7.80;;;2.67;;
35488;SDS011;21602;55.670;37.578;2022-10-16T08:52:57;9.07;;;4.05;;
35488;SDS011;21602;55.670;37.578;2022-10-16T08:58:32;8.82;;;3.03;;
35488;SDS011;21602;55.670;37.578;2022-10-16T09:00:58;7.65;;;3.03;;
35488;SDS011;21602;55.670;37.578;2022-10-16T09:08:35;9.82;;;3.33;;
35488;SDS011;21602;55.670;37.578;2022-10-16T09:16:39;8.35;;;3.20;;
35488;SDS011;21602;55.670;37.578;2022-10-16T09:19:22;9.00;;;2.78;;
35488;SDS011;21602;55.670;37.578;2022-10-16T09:21:53;5.65;;;3.33;;
35488;SDS011;21602;55.670;37.578;2022-10-16T09:24:21;9.57;;;2.50;;
35488;SDS011;21602;55.670;37.578;2022-10-16T09:26:50;9.95;;;2.60;;
35488;SDS011;21602;55.670;37.578;2022-10-16T09:29:17;7.00;;;2.72;;
35488;SDS011;21602;55.670;37.578;2022-10-16T09:31:46;8.93;;;3.13;;
35488;SDS011;21602;55.670;37.578;2022-10-16T09:34:18;9.10;;;2.63;;
35488;SDS011;21602;55.670;37.578;2022-10-16T09:36:52;7.28;;;2.05;;
35488;SDS011;21602;55.670;37.578;2022-10-16T09:39:19;6.47;;;2.13;;
35488;SDS011;21602;55.670;37.578;2022-10-16T09:41:44;5.78;;;2.58;;
35488;SDS011;21602;55.670;37.578;2022-10-16T09:44:18;5.22;;;2.58;;
35488;SDS011;21602;55.670;37.578;2022-10-16T09:46:46;5.43;;;2.50;;
35488;SDS011;21602;55.670;37.578;2022-10-16T09:49:22;6.03;;;2.33;;
35488;SDS011;21602;55.670;37.578;2022-10-16T09:52:14;7.13;;;2.40;;
35488;SDS011;21602;55.670;37.578;2022-10-16T09:54:48;27.90;;;2.75;;
35488;SDS011;21602;55.670;37.578;2022-10-16T09:57:19;7.53;;;2.28;;
35488;SDS011;21602;55.670;37.578;2022-10-16T09:59:50;3.72;;;1.88;;
35488;SDS011;21602;55.670;37.578;2022-10-16T10:02:53;5.30;;;2.40;;
35488;SDS011;21602;55.670;37.578;2022-10-16T10:05:25;7.35;;;2.70;;
35488;SDS011;21602;55.670;37.578;2022-10-16T10:07:56;9.18;;;2.63;;
35488;SDS011;21602;55.670;37.578;2022-10-16T10:10:25;3.83;;;1.55;;
35488;SDS011;21602;55.670;37.578;2022-10-16T10:12:56;4.00;;;2.15;;
35488;SDS011;21602;55.670;37.578;2022-10-16T10:15:22;7.60;;;2.40;;
35488;SDS011;21602;55.670;37.578;2022-10-16T10:17:56;3.22;;;2.10;;
35488;SDS011;21602;55.670;37.578;2022-10-16T10:20:33;6.25;;;2.40;;
35488;SDS011;21602;55.670;37.578;2022-10-16T10:23:20;4.07;;;2.60;;
35488;SDS011;21602;55.670;37.578;2022-10-16T10:25:57;4.80;;;1.95;;
35488;SDS011;21602;55.670;37.578;2022-10-16T10:28:44;6.30;;;2.08;;
35488;SDS011;21602;55.670;37.578;2022-10-16T10:36:43;5.18;;;1.85;;
35488;SDS011;21602;55.670;37.578;2022-10-16T10:39:22;2.95;;;2.22;;
35488;SDS011;21602;55.670;37.578;2022-10-16T10:50:22;5.90;;;3.38;;
35488;SDS011;21602;55.670;37.578;2022-10-16T10:56:05;6.30;;;2.30;;
35488;SDS011;21602;55.670;37.578;2022-10-16T11:07:15;2.63;;;1.73;;
35488;SDS011;21602;55.670;37.578;2022-10-16T11:09:50;5.28;;;2.38;;
35488;SDS011;21602;55.670;37.578;2022-10-16T11:12:23;4.28;;;2.35;;
35488;SDS011;21602;55.670;37.578;2022-10-16T11:17:42;4.40;;;2.15;;
35488;SDS011;21602;55.670;37.578;2022-10-16T11:20:16;2.75;;;2.03;;
35488;SDS011;21602;55.670;37.578;2022-10-16T11:22:48;8.23;;;2.38;;
35488;SDS011;21602;55.670;37.578;2022-10-16T11:25:22;5.82;;;2.58;;
35488;SDS011;21602;55.670;37.578;2022-10-16T11:30:51;5.57;;;2.13;;
35488;SDS011;21602;55.670;37.578;2022-10-16T11:42:32;5.22;;;2.40;;
35488;SDS011;21602;55.670;37.578;2022-10-16T11:44:40;5.15;;;3.17;;
35488;SDS011;21602;55.670;37.578;2022-10-16T11:47:35;10.45;;;3.40;;
35488;SDS011;21602;55.670;37.578;2022-10-16T11:50:17;3.75;;;1.90;;
35488;SDS011;21602;55.670;37.578;2022-10-16T11:52:52;4.40;;;2.03;;
35488;SDS011;21602;55.670;37.578;2022-10-16T11:55:31;2.63;;;2.03;;
35488;SDS011;21602;55.670;37.578;2022-10-16T11:58:06;7.97;;;2.38;;
35488;SDS011;21602;55.670;37.578;2022-10-16T12:08:36;11.30;;;3.33;;
35488;SDS011;21602;55.670;37.578;2022-10-16T12:11:23;4.68;;;2.38;;
35488;SDS011;21602;55.670;37.578;2022-10-16T12:16:29;5.32;;;3.08;;
35488;SDS011;21602;55.670;37.578;2022-10-16T12:19:10;4.88;;;3.08;;
35488;SDS011;21602;55.670;37.578;2022-10-16T12:21:41;2.78;;;1.80;;
35488;SDS011;21602;55.670;37.578;2022-10-16T12:24:20;3.55;;;1.75;;
35488;SDS011;21602;55.670;37.578;2022-10-16T12:26:46;7.55;;;2.33;;
35488;SDS011;21602;55.670;37.578;2022-10-16T12:29:15;5.10;;;1.90;;
35488;SDS011;21602;55.670;37.578;2022-10-16T12:31:54;5.43;;;2.55;;
35488;SDS011;21602;55.670;37.578;2022-10-16T12:34:21;6.78;;;2.10;;
35488;SDS011;21602;55.670;37.578;2022-10-16T12:36:51;4.72;;;2.28;;
35488;SDS011;21602;55.670;37.578;2022-10-16T12:39:23;4.28;;;2.55;;
35488;SDS011;21602;55.670;37.578;2022-10-16T12:42:18;4.72;;;2.15;;
35488;SDS011;21602;55.670;37.578;2022-10-16T12:44:44;7.90;;;2.40;;
35488;SDS011;21602;55.670;37.578;2022-10-16T12:49:51;6.90;;;2.20;;
35488;SDS011;21602;55.670;37.578;2022-10-16T12:52:26;3.72;;;2.42;;
35488;SDS011;21602;55.670;37.578;2022-10-16T12:55:03;4.82;;;2.63;;
35488;SDS011;21602;55.670;37.578;2022-10-16T12:57:44;5.45;;;1.98;;
35488;SDS011;21602;55.670;37.578;2022-10-16T13:05:59;6.13;;;2.00;;
35488;SDS011;21602;55.670;37.578;2022-10-16T13:08:41;7.68;;;2.20;;
35488;SDS011;21602;55.670;37.578;2022-10-16T13:11:35;4.80;;;2.00;;
35488;SDS011;21602;55.670;37.578;2022-10-16T13:19:46;6.05;;;2.65;;
35488;SDS011;21602;55.670;37.578;2022-10-16T13:22:28;14.50;;;2.65;;
35488;SDS011;21602;55.670;37.578;2022-10-16T13:27:59;4.20;;;2.20;;
35488;SDS011;21602;55.670;37.578;2022-10-16T13:30:39;3.20;;;1.77;;
35488;SDS011;21602;55.670;37.578;2022-10-16T13:33:18;6.30;;;1.92;;
35488;SDS011;21602;55.670;37.578;2022-10-16T13:35:50;3.75;;;1.90;;
35488;SDS011;21602;55.670;37.578;2022-10-16T13:38:19;5.15;;;2.20;;
35488;SDS011;21602;55.670;37.578;2022-10-16T13:43:25;4.43;;;2.30;;
35488;SDS011;21602;55.670;37.578;2022-10-16T13:46:04;4.57;;;2.55;;
35488;SDS011;21602;55.670;37.578;2022-10-16T13:48:32;4.78;;;2.25;;
35488;SDS011;21602;55.670;37.578;2022-10-16T13:51:20;4.10;;;1.98;;
35488;SDS011;21602;55.670;37.578;2022-10-16T13:53:45;7.72;;;2.75;;
35488;SDS011;21602;55.670;37.578;2022-10-16T13:56:13;6.72;;;2.50;;
35488;SDS011;21602;55.670;37.578;2022-10-16T13:58:40;11.00;;;2.97;;
35488;SDS011;21602;55.670;37.578;2022-10-16T14:03:43;11.18;;;2.63;;
35488;SDS011;21602;55.670;37.578;2022-10-16T14:06:11;6.60;;;3.17;;
35488;SDS011;21602;55.670;37.578;2022-10-16T14:08:45;5.32;;;2.50;;
35488;SDS011;21602;55.670;37.578;2022-10-16T14:11:20;6.00;;;3.22;;
35488;SDS011;21602;55.670;37.578;2022-10-16T14:13:49;3.65;;;2.13;;
35488;SDS011;21602;55.670;37.578;2022-10-16T14:16:17;7.63;;;2.10;;
35488;SDS011;21602;55.670;37.578;2022-10-16T14:18:46;5.85;;;2.70;;
35488;SDS011;21602;55.670;37.578;2022-10-16T14:21:25;5.93;;;2.63;;
35488;SDS011;21602;55.670;37.578;2022-10-16T14:23:52;5.80;;;2.55;;
35488;SDS011;21602;55.670;37.578;2022-10-16T14:26:19;5.47;;;2.38;;
35488;SDS011;21602;55.670;37.578;2022-10-16T14:28:48;3.30;;;1.80;;
35488;SDS011;21602;55.670;37.578;2022-10-16T14:33:53;4.37;;;2.43;;
35488;SDS011;21602;55.670;37.578;2022-10-16T14:36:19;5.47;;;2.25;;
35488;SDS011;21602;55.670;37.578;2022-10-16T14:41:23;8.02;;;2.70;;
35488;SDS011;21602;55.670;37.578;2022-10-16T14:43:53;4.97;;;2.27;;
35488;SDS011;21602;55.670;37.578;2022-10-16T14:46:27;5.22;;;2.75;;
35488;SDS011;21602;55.670;37.578;2022-10-16T14:51:36;9.40;;;3.17;;
35488;SDS011;21602;55.670;37.578;2022-10-16T14:54:03;6.45;;;2.70;;
35488;SDS011;21602;55.670;37.578;2022-10-16T14:56:30;5.28;;;2.42;;
35488;SDS011;21602;55.670;37.578;2022-10-16T14:58:59;4.20;;;2.55;;
35488;SDS011;21602;55.670;37.578;2022-10-16T15:01:26;10.73;;;3.45;;
35488;SDS011;21602;55.670;37.578;2022-10-16T15:03:52;3.83;;;2.70;;
35488;SDS011;21602;55.670;37.578;2022-10-16T15:06:19;3.92;;;2.75;;
35488;SDS011;21602;55.670;37.578;2022-10-16T15:08:46;9.38;;;2.80;;
35488;SDS011;21602;55.670;37.578;2022-10-16T15:11:12;5.05;;;3.13;;
35488;SDS011;21602;55.670;37.578;2022-10-16T15:13:41;6.72;;;3.40;;
35488;SDS011;21602;55.670;37.578;2022-10-16T15:16:13;7.47;;;2.83;;
35488;SDS011;21602;55.670;37.578;2022-10-16T15:18:41;5.57;;;2.80;;
35488;SDS011;21602;55.670;37.578;2022-10-16T15:21:07;5.05;;;3.03;;
35488;SDS011;21602;55.670;37.578;2022-10-16T15:23:32;8.00;;;3.40;;
35488;SDS011;21602;55.670;37.578;2022-10-16T15:25:58;3.45;;;2.60;;
35488;SDS011;21602;55.670;37.578;2022-10-16T15:28:25;5.57;;;2.97;;
35488;SDS011;21602;55.670;37.578;2022-10-16T15:30:52;8.05;;;3.53;;
35488;SDS011;21602;55.670;37.578;2022-10-16T15:33:20;6.75;;;2.90;;
35488;SDS011;21602;55.670;37.578;2022-10-16T15:35:53;6.10;;;3.17;;
35488;SDS011;21602;55.670;37.578;2022-10-16T15:38:20;6.55;;;3.10;;
35488;SDS011;21602;55.670;37.578;2022-10-16T15:40:47;6.70;;;3.28;;
35488;SDS011;21602;55.670;37.578;2022-10-16T15:43:14;11.10;;;3.85;;
35488;SDS011;21602;55.670;37.578;2022-10-16T15:45:39;6.10;;;3.15;;
35488;SDS011;21602;55.670;37.578;2022-10-16T15:48:06;7.60;;;3.00;;
35488;SDS011;21602;55.670;37.578;2022-10-16T15:50:33;9.23;;;4.25;;
35488;SDS011;21602;55.670;37.578;2022-10-16T15:52:59;4.55;;;2.88;;
35488;SDS011;21602;55.670;37.578;2022-10-16T15:55:24;5.88;;;2.95;;
35488;SDS011;21602;55.670;37.578;2022-10-16T15:57:50;3.90;;;2.67;;
35488;SDS011;21602;55.670;37.578;2022-10-16T16:00:17;7.72;;;2.92;;
35488;SDS011;21602;55.670;37.578;2022-10-16T16:02:53;10.07;;;3.00;;
35488;SDS011;21602;55.670;37.578;2022-10-16T16:05:19;5.80;;;2.75;;
35488;SDS011;21602;55.670;37.578;2022-10-16T16:07:48;8.35;;;2.83;;
35488;SDS011;21602;55.670;37.578;2022-10-16T16:10:14;4.43;;;2.95;;
35488;SDS011;21602;55.670;37.578;2022-10-16T16:12:40;8.80;;;2.95;;
35488;SDS011;21602;55.670;37.578;2022-10-16T16:15:07;7.18;;;3.30;;
35488;SDS011;21602;55.670;37.578;2022-10-16T16:17:34;5.57;;;2.78;;
35488;SDS011;21602;55.670;37.578;2022-10-16T16:20:02;10.37;;;4.07;;
35488;SDS011;21602;55.670;37.578;2022-10-16T16:22:29;5.65;;;3.00;;
35488;SDS011;21602;55.670;37.578;2022-10-16T16:24:56;5.18;;;2.97;;
35488;SDS011;21602;55.670;37.578;2022-10-16T16:27:22;7.72;;;2.55;;
35488;SDS011;21602;55.670;37.578;2022-10-16T16:29:50;5.75;;;3.05;;
35488;SDS011;21602;55.670;37.578;2022-10-16T16:32:15;3.55;;;2.65;;
35488;SDS011;21602;55.670;37.578;2022-10-16T16:34:41;10.82;;;2.88;;
35488;SDS011;21602;55.670;37.578;2022-10-16T16:37:07;5.32;;;3.13;;
35488;SDS011;21602;55.670;37.578;2022-10-16T16:39:33;4.88;;;2.65;;
35488;SDS011;21602;55.670;37.578;2022-10-16T16:41:59;6.90;;;2.90;;
35488;SDS011;21602;55.670;37.578;2022-10-16T16:44:25;5.30;;;2.50;;
35488;SDS011;21602;55.670;37.578;2022-10-16T16:46:52;4.13;;;2.42;;
35488;SDS011;21602;55.670;37.578;2022-10-16T16:49:18;5.75;;;2.90;;